sensor_id;sensor_type;location;lat;lon;timestamp;pressure;altitude;pressure_sealevel;temperature;humidity
35655;BME280;21773;50.010;19.972;2023-05-02T00:02:02;98776.00;;;14.13;45.97
35655;BME280;21773;50.010;19.972;2023-05-02T00:05:07;98773.56;;;14.12;45.98
35655;BME280;21773;50.010;19.972;2023-05-02T00:08:10;98772.16;;;14.09;46.21
35655;BME280;21773;50.010;19.972;2023-05-02T00:11:14;98772.97;;;14.10;46.23
35655;BME280;21773;50.010;19.972;2023-05-02T00:14:17;98758.59;;;14.09;46.38
35655;BME280;21773;50.010;19.972;2023-05-02T00:17:22;98766.72;;;14.09;46.24
35655;BME280;21773;50.010;19.972;2023-05-02T00:20:25;98773.72;;;14.05;46.39
35655;BME280;21773;50.010;19.972;2023-05-02T00:23:29;98752.59;;;13.91;46.51
35655;BME280;21773;50.010;19.972;2023-05-02T00:26:32;98767.28;;;13.95;46.87
35655;BME280;21773;50.010;19.972;2023-05-02T00:29:35;98766.47;;;13.94;46.78
35655;BME280;21773;50.010;19.972;2023-05-02T00:32:40;98766.78;;;13.98;46.61
35655;BME280;21773;50.010;19.972;2023-05-02T00:35:43;98754.06;;;13.98;46.39
35655;BME280;21773;50.010;19.972;2023-05-02T00:38:47;98760.22;;;14.10;46.22
35655;BME280;21773;50.010;19.972;2023-05-02T00:41:55;98765.16;;;14.13;45.77
35655;BME280;21773;50.010;19.972;2023-05-02T00:44:59;98767.69;;;14.20;46.23
35655;BME280;21773;50.010;19.972;2023-05-02T00:48:04;98767.88;;;14.30;46.01
35655;BME280;21773;50.010;19.972;2023-05-02T00:51:08;98772.88;;;14.38;45.73
35655;BME280;21773;50.010;19.972;2023-05-02T00:54:13;98773.28;;;14.47;45.63
35655;BME280;21773;50.010;19.972;2023-05-02T00:57:16;98783.97;;;14.53;45.65
35655;BME280;21773;50.010;19.972;2023-05-02T01:00:21;98782.13;;;14.59;45.71
35655;BME280;21773;50.010;19.972;2023-05-02T01:03:41;98780.19;;;14.54;45.73
35655;BME280;21773;50.010;19.972;2023-05-02T01:07:01;98778.06;;;14.40;46.43
35655;BME280;21773;50.010;19.972;2023-05-02T01:10:17;98778.03;;;14.23;46.99
35655;BME280;21773;50.010;19.972;2023-05-02T01:13:26;98777.88;;;14.13;46.99
35655;BME280;21773;50.010;19.972;2023-05-02T01:16:33;98775.44;;;14.11;47.30
35655;BME280;21773;50.010;19.972;2023-05-02T01:19:50;98776.50;;;14.10;47.50
35655;BME280;21773;50.010;19.972;2023-05-02T01:22:59;98782.44;;;14.07;47.35
35655;BME280;21773;50.010;19.972;2023-05-02T01:26:14;98773.94;;;14.04;47.35
35655;BME280;21773;50.010;19.972;2023-05-02T01:29:21;98775.50;;;14.00;47.71
35655;BME280;21773;50.010;19.972;2023-05-02T01:32:26;98774.94;;;13.98;47.53
35655;BME280;21773;50.010;19.972;2023-05-02T01:35:32;98770.84;;;13.95;47.85
35655;BME280;21773;50.010;19.972;2023-05-02T01:38:38;98774.38;;;13.96;47.66
35655;BME280;21773;50.010;19.972;2023-05-02T01:41:42;98765.66;;;13.94;47.48
35655;BME280;21773;50.010;19.972;2023-05-02T01:44:50;98762.38;;;13.92;47.89
35655;BME280;21773;50.010;19.972;2023-05-02T01:47:56;98740.53;;;13.81;48.01
35655;BME280;21773;50.010;19.972;2023-05-02T01:51:02;98755.47;;;13.84;47.98
35655;BME280;21773;50.010;19.972;2023-05-02T01:54:08;98770.06;;;13.83;48.09
35655;BME280;21773;50.010;19.972;2023-05-02T01:57:14;98733.53;;;13.69;47.93
35655;BME280;21773;50.010;19.972;2023-05-02T02:00:21;98757.84;;;13.80;48.01
35655;BME280;21773;50.010;19.972;2023-05-02T02:03:28;98761.22;;;13.71;48.48
35655;BME280;21773;50.010;19.972;2023-05-02T02:06:33;98769.09;;;13.72;48.50
35655;BME280;21773;50.010;19.972;2023-05-02T02:09:37;98770.31;;;13.65;48.73
35655;BME280;21773;50.010;19.972;2023-05-02T02:12:43;98773.28;;;13.63;48.75
35655;BME280;21773;50.010;19.972;2023-05-02T02:15:52;98776.06;;;13.68;48.80
35655;BME280;21773;50.010;19.972;2023-05-02T02:19:05;98776.63;;;13.70;48.95
35655;BME280;21773;50.010;19.972;2023-05-02T02:22:12;98775.25;;;13.68;48.88
35655;BME280;21773;50.010;19.972;2023-05-02T02:25:17;98773.84;;;13.65;48.84
35655;BME280;21773;50.010;19.972;2023-05-02T02:28:21;98778.84;;;13.57;49.38
35655;BME280;21773;50.010;19.972;2023-05-02T02:31:30;98771.69;;;13.51;49.54
35655;BME280;21773;50.010;19.972;2023-05-02T02:34:34;98773.00;;;13.48;49.31
35655;BME280;21773;50.010;19.972;2023-05-02T02:37:40;98779.53;;;13.35;49.37
35655;BME280;21773;50.010;19.972;2023-05-02T02:40:52;98778.69;;;13.35;49.74
35655;BME280;21773;50.010;19.972;2023-05-02T02:44:03;98782.97;;;13.31;49.64
35655;BME280;21773;50.010;19.972;2023-05-02T02:47:14;98781.81;;;13.27;50.01
35655;BME280;21773;50.010;19.972;2023-05-02T02:50:26;98776.97;;;13.29;50.12
35655;BME280;21773;50.010;19.972;2023-05-02T02:53:39;98781.66;;;13.33;50.05
35655;BME280;21773;50.010;19.972;2023-05-02T02:56:51;98775.75;;;13.36;49.85
35655;BME280;21773;50.010;19.972;2023-05-02T03:00:04;98795.88;;;13.40;49.63
35655;BME280;21773;50.010;19.972;2023-05-02T03:03:10;98785.38;;;13.44;49.60
35655;BME280;21773;50.010;19.972;2023-05-02T03:06:16;98790.53;;;13.45;49.50
35655;BME280;21773;50.010;19.972;2023-05-02T03:09:21;98789.09;;;13.55;48.93
35655;BME280;21773;50.010;19.972;2023-05-02T03:12:25;98793.78;;;13.59;49.27
35655;BME280;21773;50.010;19.972;2023-05-02T03:16:05;98790.50;;;13.57;49.09
35655;BME280;21773;50.010;19.972;2023-05-02T03:19:16;98787.31;;;13.32;49.81
35655;BME280;21773;50.010;19.972;2023-05-02T03:22:19;98811.56;;;13.38;49.74
35655;BME280;21773;50.010;19.972;2023-05-02T03:25:23;98810.94;;;13.36;49.59
35655;BME280;21773;50.010;19.972;2023-05-02T03:28:27;98808.25;;;13.36;49.78
35655;BME280;21773;50.010;19.972;2023-05-02T03:31:31;98813.78;;;13.30;49.89
35655;BME280;21773;50.010;19.972;2023-05-02T03:34:36;98814.53;;;13.25;50.02
35655;BME280;21773;50.010;19.972;2023-05-02T03:37:40;98809.38;;;13.24;50.25
35655;BME280;21773;50.010;19.972;2023-05-02T03:40:43;98809.59;;;13.22;50.19
35655;BME280;21773;50.010;19.972;2023-05-02T03:43:47;98810.66;;;13.21;50.45
35655;BME280;21773;50.010;19.972;2023-05-02T03:46:51;98812.78;;;13.19;50.50
35655;BME280;21773;50.010;19.972;2023-05-02T03:49:56;98810.66;;;13.21;50.50
35655;BME280;21773;50.010;19.972;2023-05-02T03:53:02;98812.63;;;13.26;50.50
35655;BME280;21773;50.010;19.972;2023-05-02T03:56:16;98817.09;;;13.32;50.03
35655;BME280;21773;50.010;19.972;2023-05-02T03:59:32;98812.94;;;13.41;50.03
35655;BME280;21773;50.010;19.972;2023-05-02T04:02:44;98809.59;;;13.51;50.09
35655;BME280;21773;50.010;19.972;2023-05-02T04:05:53;98804.97;;;13.63;49.89
35655;BME280;21773;50.010;19.972;2023-05-02T04:08:56;98805.16;;;13.73;49.58
35655;BME280;21773;50.010;19.972;2023-05-02T04:12:06;98812.88;;;13.81;49.42
35655;BME280;21773;50.010;19.972;2023-05-02T04:15:14;98807.88;;;13.89;49.90
35655;BME280;21773;50.010;19.972;2023-05-02T04:18:18;98818.66;;;14.01;49.77
35655;BME280;21773;50.010;19.972;2023-05-02T04:21:23;98815.50;;;14.09;50.03
35655;BME280;21773;50.010;19.972;2023-05-02T04:24:27;98803.38;;;14.12;49.25
35655;BME280;21773;50.010;19.972;2023-05-02T04:27:32;98806.88;;;14.29;49.69
35655;BME280;21773;50.010;19.972;2023-05-02T04:30:36;98797.78;;;14.35;49.86
35655;BME280;21773;50.010;19.972;2023-05-02T04:33:43;98808.13;;;14.55;49.47
35655;BME280;21773;50.010;19.972;2023-05-02T04:36:48;98810.25;;;14.69;49.29
35655;BME280;21773;50.010;19.972;2023-05-02T04:39:56;98801.72;;;14.83;48.98
35655;BME280;21773;50.010;19.972;2023-05-02T04:43:01;98812.56;;;14.99;48.59
35655;BME280;21773;50.010;19.972;2023-05-02T04:46:13;98813.06;;;15.18;48.69
35655;BME280;21773;50.010;19.972;2023-05-02T04:49:16;98815.50;;;15.41;48.38
35655;BME280;21773;50.010;19.972;2023-05-02T04:52:22;98805.69;;;15.62;47.69
35655;BME280;21773;50.010;19.972;2023-05-02T04:55:25;98806.44;;;15.84;47.62
35655;BME280;21773;50.010;19.972;2023-05-02T04:58:29;98799.59;;;16.09;47.39
35655;BME280;21773;50.010;19.972;2023-05-02T05:01:36;98801.69;;;16.33;46.59
35655;BME280;21773;50.010;19.972;2023-05-02T05:04:41;98807.38;;;16.64;46.14
35655;BME280;21773;50.010;19.972;2023-05-02T05:07:48;98814.09;;;16.93;45.03
35655;BME280;21773;50.010;19.972;2023-05-02T05:10:55;98814.22;;;17.23;44.40
35655;BME280;21773;50.010;19.972;2023-05-02T05:13:59;98811.59;;;17.44;39.67
35655;BME280;21773;50.010;19.972;2023-05-02T05:17:07;98810.59;;;17.75;37.47
35655;BME280;21773;50.010;19.972;2023-05-02T05:20:11;98810.91;;;18.04;34.23
35655;BME280;21773;50.010;19.972;2023-05-02T05:23:17;98808.44;;;18.33;32.31
35655;BME280;21773;50.010;19.972;2023-05-02T05:26:20;98803.53;;;18.60;32.49
35655;BME280;21773;50.010;19.972;2023-05-02T05:29:25;98806.75;;;18.82;31.37
35655;BME280;21773;50.010;19.972;2023-05-02T05:32:29;98814.91;;;18.97;30.11
35655;BME280;21773;50.010;19.972;2023-05-02T05:35:32;98811.88;;;19.14;30.17
35655;BME280;21773;50.010;19.972;2023-05-02T05:38:37;98805.47;;;19.39;30.42
35655;BME280;21773;50.010;19.972;2023-05-02T05:41:43;98809.19;;;19.68;30.01
35655;BME280;21773;50.010;19.972;2023-05-02T05:44:47;98796.88;;;20.05;30.81
35655;BME280;21773;50.010;19.972;2023-05-02T05:47:53;98799.97;;;20.32;29.50
35655;BME280;21773;50.010;19.972;2023-05-02T05:51:02;98807.75;;;20.49;29.47
35655;BME280;21773;50.010;19.972;2023-05-02T05:54:08;98813.03;;;20.69;29.79
35655;BME280;21773;50.010;19.972;2023-05-02T05:57:12;98815.41;;;20.81;29.32
35655;BME280;21773;50.010;19.972;2023-05-02T06:00:17;98833.25;;;21.02;28.00
35655;BME280;21773;50.010;19.972;2023-05-02T06:03:24;98822.69;;;21.19;28.00
35655;BME280;21773;50.010;19.972;2023-05-02T06:06:28;98812.16;;;21.50;28.86
35655;BME280;21773;50.010;19.972;2023-05-02T06:09:34;98815.69;;;21.50;28.20
35655;BME280;21773;50.010;19.972;2023-05-02T06:12:37;98812.03;;;21.79;28.12
35655;BME280;21773;50.010;19.972;2023-05-02T06:15:42;98818.34;;;21.98;27.35
35655;BME280;21773;50.010;19.972;2023-05-02T06:18:46;98819.59;;;22.06;27.64
35655;BME280;21773;50.010;19.972;2023-05-02T06:21:49;98823.53;;;22.18;26.73
35655;BME280;21773;50.010;19.972;2023-05-02T06:24:54;98835.16;;;22.29;26.59
35655;BME280;21773;50.010;19.972;2023-05-02T06:27:58;98838.03;;;22.37;26.66
35655;BME280;21773;50.010;19.972;2023-05-02T06:31:02;98826.91;;;22.61;26.87
35655;BME280;21773;50.010;19.972;2023-05-02T06:34:06;98822.50;;;22.79;27.29
35655;BME280;21773;50.010;19.972;2023-05-02T06:37:09;98836.03;;;22.75;26.59
35655;BME280;21773;50.010;19.972;2023-05-02T06:40:14;98835.56;;;22.87;27.17
35655;BME280;21773;50.010;19.972;2023-05-02T06:43:18;98829.56;;;23.12;27.69
35655;BME280;21773;50.010;19.972;2023-05-02T06:46:21;98851.97;;;23.33;26.68
35655;BME280;21773;50.010;19.972;2023-05-02T06:49:25;98832.34;;;23.26;26.77
35655;BME280;21773;50.010;19.972;2023-05-02T06:52:29;98838.53;;;23.31;26.83
35655;BME280;21773;50.010;19.972;2023-05-02T06:55:33;98850.16;;;23.28;26.28
35655;BME280;21773;50.010;19.972;2023-05-02T06:58:37;98840.25;;;23.14;26.92
35655;BME280;21773;50.010;19.972;2023-05-02T07:01:40;98849.09;;;22.97;26.71
35655;BME280;21773;50.010;19.972;2023-05-02T07:04:43;98847.31;;;22.74;26.74
35655;BME280;21773;50.010;19.972;2023-05-02T07:07:47;98849.63;;;22.67;26.75
35655;BME280;21773;50.010;19.972;2023-05-02T07:10:51;98851.34;;;22.63;27.33
35655;BME280;21773;50.010;19.972;2023-05-02T07:13:54;98854.66;;;22.78;27.33
35655;BME280;21773;50.010;19.972;2023-05-02T07:16:58;98854.81;;;22.87;27.06
35655;BME280;21773;50.010;19.972;2023-05-02T07:20:02;98856.13;;;23.03;26.95
35655;BME280;21773;50.010;19.972;2023-05-02T07:23:06;98849.81;;;22.89;27.05
35655;BME280;21773;50.010;19.972;2023-05-02T07:26:11;98861.22;;;22.96;27.64
35655;BME280;21773;50.010;19.972;2023-05-02T07:29:14;98862.63;;;22.94;27.30
35655;BME280;21773;50.010;19.972;2023-05-02T07:32:19;98865.31;;;22.66;27.24
35655;BME280;21773;50.010;19.972;2023-05-02T07:35:22;98851.44;;;22.58;27.31
35655;BME280;21773;50.010;19.972;2023-05-02T07:38:26;98867.78;;;22.49;28.30
35655;BME280;21773;50.010;19.972;2023-05-02T07:41:31;98879.63;;;22.31;28.75
35655;BME280;21773;50.010;19.972;2023-05-02T07:44:34;98873.47;;;22.20;29.09
35655;BME280;21773;50.010;19.972;2023-05-02T07:47:37;98864.47;;;22.15;29.45
35655;BME280;21773;50.010;19.972;2023-05-02T07:50:41;98866.94;;;22.16;29.14
35655;BME280;21773;50.010;19.972;2023-05-02T07:53:44;98868.19;;;22.05;29.46
35655;BME280;21773;50.010;19.972;2023-05-02T07:56:49;98874.88;;;21.99;29.86
35655;BME280;21773;50.010;19.972;2023-05-02T07:59:52;98877.81;;;21.84;30.19
35655;BME280;21773;50.010;19.972;2023-05-02T08:02:58;98880.69;;;21.74;30.62
35655;BME280;21773;50.010;19.972;2023-05-02T08:06:01;98884.25;;;21.74;30.82
35655;BME280;21773;50.010;19.972;2023-05-02T08:09:05;98874.66;;;21.72;30.90
35655;BME280;21773;50.010;19.972;2023-05-02T08:12:11;98885.13;;;21.70;31.20
35655;BME280;21773;50.010;19.972;2023-05-02T08:15:14;98887.63;;;21.66;31.90
35655;BME280;21773;50.010;19.972;2023-05-02T08:18:18;98889.56;;;21.66;32.10
35655;BME280;21773;50.010;19.972;2023-05-02T08:21:21;98878.53;;;21.89;32.14
35655;BME280;21773;50.010;19.972;2023-05-02T08:24:24;98880.44;;;22.31;31.94
35655;BME280;21773;50.010;19.972;2023-05-02T08:27:29;98878.72;;;22.86;31.17
35655;BME280;21773;50.010;19.972;2023-05-02T08:30:32;98878.56;;;22.97;30.72
35655;BME280;21773;50.010;19.972;2023-05-02T08:33:36;98889.03;;;23.22;30.62
35655;BME280;21773;50.010;19.972;2023-05-02T08:36:39;98886.44;;;23.58;30.98
35655;BME280;21773;50.010;19.972;2023-05-02T08:39:42;98890.34;;;24.06;30.29
35655;BME280;21773;50.010;19.972;2023-05-02T08:42:47;98885.41;;;24.31;30.41
35655;BME280;21773;50.010;19.972;2023-05-02T08:45:52;98893.31;;;24.46;29.92
35655;BME280;21773;50.010;19.972;2023-05-02T08:48:57;98891.44;;;24.55;29.76
35655;BME280;21773;50.010;19.972;2023-05-02T08:52:01;98899.84;;;24.50;29.71
35655;BME280;21773;50.010;19.972;2023-05-02T08:55:06;98901.47;;;24.51;29.92
35655;BME280;21773;50.010;19.972;2023-05-02T08:58:11;98892.69;;;24.71;29.83
35655;BME280;21773;50.010;19.972;2023-05-02T09:01:17;98893.44;;;24.85;29.39
35655;BME280;21773;50.010;19.972;2023-05-02T09:04:23;98883.41;;;25.12;29.21
35655;BME280;21773;50.010;19.972;2023-05-02T09:07:43;98884.94;;;25.26;29.50
35655;BME280;21773;50.010;19.972;2023-05-02T09:10:46;98885.13;;;25.38;29.49
35655;BME280;21773;50.010;19.972;2023-05-02T09:13:51;98882.16;;;25.57;29.03
35655;BME280;21773;50.010;19.972;2023-05-02T09:16:58;98892.47;;;25.52;28.97
35655;BME280;21773;50.010;19.972;2023-05-02T09:20:02;98874.75;;;25.75;28.87
35655;BME280;21773;50.010;19.972;2023-05-02T09:23:06;98887.50;;;26.36;28.52
35655;BME280;21773;50.010;19.972;2023-05-02T09:26:11;98892.88;;;26.33;28.05
35655;BME280;21773;50.010;19.972;2023-05-02T09:29:18;98898.69;;;26.14;27.75
35655;BME280;21773;50.010;19.972;2023-05-02T09:32:45;98900.59;;;26.05;27.94
35655;BME280;21773;50.010;19.972;2023-05-02T09:35:53;98889.03;;;25.77;27.77
35655;BME280;21773;50.010;19.972;2023-05-02T09:39:08;98905.06;;;25.66;28.59
35655;BME280;21773;50.010;19.972;2023-05-02T09:42:12;98900.19;;;25.63;28.63
35655;BME280;21773;50.010;19.972;2023-05-02T09:45:23;98902.16;;;25.63;28.86
35655;BME280;21773;50.010;19.972;2023-05-02T09:48:28;98896.16;;;25.69;28.80
35655;BME280;21773;50.010;19.972;2023-05-02T09:51:32;98885.97;;;25.87;28.66
35655;BME280;21773;50.010;19.972;2023-05-02T09:54:35;98887.97;;;26.12;28.53
35655;BME280;21773;50.010;19.972;2023-05-02T09:57:39;98885.22;;;26.72;28.10
35655;BME280;21773;50.010;19.972;2023-05-02T10:00:44;98873.75;;;27.08;27.46
35655;BME280;21773;50.010;19.972;2023-05-02T10:03:48;98875.38;;;27.47;26.53
35655;BME280;21773;50.010;19.972;2023-05-02T10:06:53;98880.03;;;27.35;26.24
35655;BME280;21773;50.010;19.972;2023-05-02T10:09:57;98883.06;;;27.50;26.77
35655;BME280;21773;50.010;19.972;2023-05-02T10:13:04;98882.97;;;27.68;26.43
35655;BME280;21773;50.010;19.972;2023-05-02T10:16:11;98889.19;;;27.94;25.72
35655;BME280;21773;50.010;19.972;2023-05-02T10:19:21;98878.22;;;27.97;25.11
35655;BME280;21773;50.010;19.972;2023-05-02T10:22:25;98886.59;;;28.18;25.40
35655;BME280;21773;50.010;19.972;2023-05-02T10:25:29;98872.88;;;28.22;24.56
35655;BME280;21773;50.010;19.972;2023-05-02T10:28:35;98870.75;;;28.39;25.04
35655;BME280;21773;50.010;19.972;2023-05-02T10:31:41;98867.53;;;28.70;25.40
35655;BME280;21773;50.010;19.972;2023-05-02T10:34:46;98867.97;;;28.81;24.43
35655;BME280;21773;50.010;19.972;2023-05-02T10:37:51;98864.97;;;28.65;24.47
35655;BME280;21773;50.010;19.972;2023-05-02T10:40:58;98875.69;;;28.55;25.13
35655;BME280;21773;50.010;19.972;2023-05-02T10:44:03;98870.84;;;28.64;24.95
35655;BME280;21773;50.010;19.972;2023-05-02T10:47:20;98865.22;;;28.39;24.69
35655;BME280;21773;50.010;19.972;2023-05-02T10:50:41;98875.75;;;28.46;25.15
35655;BME280;21773;50.010;19.972;2023-05-02T10:53:45;98860.63;;;28.43;24.73
35655;BME280;21773;50.010;19.972;2023-05-02T10:57:05;98859.94;;;28.47;24.86
35655;BME280;21773;50.010;19.972;2023-05-02T11:00:20;98850.00;;;28.25;24.15
35655;BME280;21773;50.010;19.972;2023-05-02T11:03:56;98860.41;;;28.07;24.78
35655;BME280;21773;50.010;19.972;2023-05-02T11:07:18;98868.75;;;27.78;25.26
35655;BME280;21773;50.010;19.972;2023-05-02T11:10:26;98860.75;;;27.55;25.45
35655;BME280;21773;50.010;19.972;2023-05-02T11:13:47;98861.38;;;27.52;25.79
35655;BME280;21773;50.010;19.972;2023-05-02T11:17:05;98852.38;;;27.64;25.44
35655;BME280;21773;50.010;19.972;2023-05-02T11:20:18;98856.75;;;27.94;25.58
35655;BME280;21773;50.010;19.972;2023-05-02T11:23:22;98858.88;;;28.39;25.45
35655;BME280;21773;50.010;19.972;2023-05-02T11:26:28;98847.72;;;28.80;24.73
35655;BME280;21773;50.010;19.972;2023-05-02T11:29:51;98855.06;;;29.09;24.27
35655;BME280;21773;50.010;19.972;2023-05-02T11:33:14;98848.91;;;29.37;23.79
35655;BME280;21773;50.010;19.972;2023-05-02T11:36:28;98858.16;;;29.41;24.74
35655;BME280;21773;50.010;19.972;2023-05-02T11:39:31;98852.34;;;29.34;24.09
35655;BME280;21773;50.010;19.972;2023-05-02T11:42:35;98860.13;;;28.83;24.13
35655;BME280;21773;50.010;19.972;2023-05-02T11:45:39;98861.09;;;28.46;24.13
35655;BME280;21773;50.010;19.972;2023-05-02T11:48:44;98868.47;;;28.21;25.19
35655;BME280;21773;50.010;19.972;2023-05-02T11:51:49;98857.75;;;28.11;25.39
35655;BME280;21773;50.010;19.972;2023-05-02T11:54:54;98860.91;;;28.00;25.35
35655;BME280;21773;50.010;19.972;2023-05-02T11:57:57;98851.84;;;28.21;25.23
35655;BME280;21773;50.010;19.972;2023-05-02T12:01:10;98853.06;;;28.85;25.76
35655;BME280;21773;50.010;19.972;2023-05-02T12:04:14;98848.50;;;29.26;24.35
35655;BME280;21773;50.010;19.972;2023-05-02T12:07:35;98848.56;;;29.50;23.29
35655;BME280;21773;50.010;19.972;2023-05-02T12:10:39;98848.75;;;29.57;23.36
35655;BME280;21773;50.010;19.972;2023-05-02T12:13:46;98844.72;;;29.43;23.83
35655;BME280;21773;50.010;19.972;2023-05-02T12:16:51;98852.53;;;29.28;23.36
35655;BME280;21773;50.010;19.972;2023-05-02T12:19:54;98851.59;;;29.00;24.18
35655;BME280;21773;50.010;19.972;2023-05-02T12:22:59;98843.03;;;28.39;24.15
35655;BME280;21773;50.010;19.972;2023-05-02T12:26:15;98866.47;;;27.80;26.27
35655;BME280;21773;50.010;19.972;2023-05-02T12:29:19;98888.25;;;27.52;28.50
35655;BME280;21773;50.010;19.972;2023-05-02T12:32:30;98903.25;;;26.96;30.54
35655;BME280;21773;50.010;19.972;2023-05-02T12:35:34;98892.03;;;26.49;30.83
35655;BME280;21773;50.010;19.972;2023-05-02T12:38:39;98904.53;;;26.21;30.76
35655;BME280;21773;50.010;19.972;2023-05-02T12:41:44;98899.25;;;25.76;35.46
35655;BME280;21773;50.010;19.972;2023-05-02T12:44:49;98900.94;;;25.16;38.46
35655;BME280;21773;50.010;19.972;2023-05-02T12:47:54;98905.81;;;24.43;39.90
35655;BME280;21773;50.010;19.972;2023-05-02T12:50:57;98902.47;;;23.69;40.89
35655;BME280;21773;50.010;19.972;2023-05-02T12:54:03;98904.34;;;23.42;40.33
35655;BME280;21773;50.010;19.972;2023-05-02T12:57:07;98932.16;;;23.26;42.62
35655;BME280;21773;50.010;19.972;2023-05-02T13:00:11;98917.59;;;22.80;42.17
35655;BME280;21773;50.010;19.972;2023-05-02T13:03:15;98905.50;;;22.43;40.36
35655;BME280;21773;50.010;19.972;2023-05-02T13:06:19;98910.25;;;22.19;42.41
35655;BME280;21773;50.010;19.972;2023-05-02T13:09:24;98904.56;;;21.97;42.09
35655;BME280;21773;50.010;19.972;2023-05-02T13:12:27;98908.56;;;21.81;42.14
35655;BME280;21773;50.010;19.972;2023-05-02T13:15:30;98916.63;;;21.96;43.62
35655;BME280;21773;50.010;19.972;2023-05-02T13:18:34;98925.19;;;22.13;45.57
35655;BME280;21773;50.010;19.972;2023-05-02T13:21:37;98938.47;;;22.25;45.10
35655;BME280;21773;50.010;19.972;2023-05-02T13:24:42;98935.97;;;22.28;45.05
35655;BME280;21773;50.010;19.972;2023-05-02T13:27:47;98972.19;;;22.30;42.54
35655;BME280;21773;50.010;19.972;2023-05-02T13:30:50;98975.22;;;22.29;41.12
35655;BME280;21773;50.010;19.972;2023-05-02T13:33:54;98959.53;;;22.11;43.31
35655;BME280;21773;50.010;19.972;2023-05-02T13:36:57;98959.69;;;21.77;44.30
35655;BME280;21773;50.010;19.972;2023-05-02T13:40:02;98947.19;;;21.66;44.63
35655;BME280;21773;50.010;19.972;2023-05-02T13:43:06;98972.72;;;21.37;44.07
35655;BME280;21773;50.010;19.972;2023-05-02T13:46:10;98964.19;;;21.15;45.97
35655;BME280;21773;50.010;19.972;2023-05-02T13:49:13;98966.56;;;20.88;44.78
35655;BME280;21773;50.010;19.972;2023-05-02T13:52:16;98976.16;;;20.56;45.20
35655;BME280;21773;50.010;19.972;2023-05-02T13:55:21;98988.63;;;20.23;46.94
35655;BME280;21773;50.010;19.972;2023-05-02T13:58:24;98997.47;;;20.10;48.91
35655;BME280;21773;50.010;19.972;2023-05-02T14:01:28;98994.84;;;19.75;50.51
35655;BME280;21773;50.010;19.972;2023-05-02T14:04:31;98996.84;;;19.54;52.25
35655;BME280;21773;50.010;19.972;2023-05-02T14:07:35;98988.91;;;19.37;52.94
35655;BME280;21773;50.010;19.972;2023-05-02T14:10:39;98995.19;;;19.43;53.51
35655;BME280;21773;50.010;19.972;2023-05-02T14:13:43;99003.97;;;19.30;54.17
35655;BME280;21773;50.010;19.972;2023-05-02T14:16:46;98973.09;;;19.14;54.84
35655;BME280;21773;50.010;19.972;2023-05-02T14:19:51;98994.66;;;19.26;55.26
35655;BME280;21773;50.010;19.972;2023-05-02T14:22:54;98998.50;;;19.30;55.03
35655;BME280;21773;50.010;19.972;2023-05-02T14:25:59;98998.78;;;19.23;55.42
35655;BME280;21773;50.010;19.972;2023-05-02T14:29:02;98996.03;;;19.28;54.64
35655;BME280;21773;50.010;19.972;2023-05-02T14:32:06;98997.13;;;19.32;54.77
35655;BME280;21773;50.010;19.972;2023-05-02T14:35:09;98986.75;;;19.39;55.76
35655;BME280;21773;50.010;19.972;2023-05-02T14:38:13;98983.47;;;19.48;55.58
35655;BME280;21773;50.010;19.972;2023-05-02T14:41:18;98946.81;;;19.49;55.05
35655;BME280;21773;50.010;19.972;2023-05-02T14:44:22;98927.41;;;19.45;55.40
35655;BME280;21773;50.010;19.972;2023-05-02T14:47:27;98891.31;;;19.48;55.75
35655;BME280;21773;50.010;19.972;2023-05-02T14:50:31;98876.50;;;19.59;55.47
35655;BME280;21773;50.010;19.972;2023-05-02T14:53:35;98881.97;;;19.59;55.72
35655;BME280;21773;50.010;19.972;2023-05-02T14:56:39;98909.56;;;19.63;55.19
35655;BME280;21773;50.010;19.972;2023-05-02T14:59:43;98927.88;;;19.67;55.32
35655;BME280;21773;50.010;19.972;2023-05-02T15:02:47;98927.88;;;19.72;55.64
35655;BME280;21773;50.010;19.972;2023-05-02T15:05:50;98946.47;;;19.70;54.46
35655;BME280;21773;50.010;19.972;2023-05-02T15:08:54;98953.94;;;19.44;56.04
35655;BME280;21773;50.010;19.972;2023-05-02T15:11:58;98968.69;;;19.38;57.32
35655;BME280;21773;50.010;19.972;2023-05-02T15:15:04;98980.19;;;19.25;56.56
35655;BME280;21773;50.010;19.972;2023-05-02T15:18:07;98977.44;;;19.35;56.83
35655;BME280;21773;50.010;19.972;2023-05-02T15:21:11;98983.72;;;19.41;55.34
35655;BME280;21773;50.010;19.972;2023-05-02T15:24:14;98987.03;;;19.48;54.29
35655;BME280;21773;50.010;19.972;2023-05-02T15:27:18;98982.06;;;19.50;53.84
35655;BME280;21773;50.010;19.972;2023-05-02T15:30:22;98997.13;;;19.53;54.60
35655;BME280;21773;50.010;19.972;2023-05-02T15:33:25;98985.09;;;19.43;55.56
35655;BME280;21773;50.010;19.972;2023-05-02T15:36:29;99007.78;;;19.54;54.27
35655;BME280;21773;50.010;19.972;2023-05-02T15:39:33;99018.97;;;19.42;54.34
35655;BME280;21773;50.010;19.972;2023-05-02T15:42:38;99014.59;;;19.41;54.72
35655;BME280;21773;50.010;19.972;2023-05-02T15:45:42;99020.38;;;19.45;54.59
35655;BME280;21773;50.010;19.972;2023-05-02T15:48:46;99023.63;;;19.57;54.59
35655;BME280;21773;50.010;19.972;2023-05-02T15:51:49;99028.00;;;19.63;54.17
35655;BME280;21773;50.010;19.972;2023-05-02T15:54:52;99022.25;;;19.65;54.22
35655;BME280;21773;50.010;19.972;2023-05-02T15:57:58;99043.00;;;19.81;55.42
35655;BME280;21773;50.010;19.972;2023-05-02T16:01:01;99039.41;;;19.90;55.65
35655;BME280;21773;50.010;19.972;2023-05-02T16:04:05;99045.13;;;19.94;53.38
35655;BME280;21773;50.010;19.972;2023-05-02T16:07:10;99049.81;;;19.99;53.71
35655;BME280;21773;50.010;19.972;2023-05-02T16:10:14;99056.34;;;20.03;53.55
35655;BME280;21773;50.010;19.972;2023-05-02T16:13:19;99067.28;;;20.08;53.38